sensor_id;sensor_type;location;lat;lon;timestamp;pressure;altitude;pressure_sealevel;temperature;humidity
74433;BME280;62865;53.146;23.172;2023-04-08T00:01:02;1030.5;;;5.1;74.6
74433;BME280;62865;53.146;23.172;2023-04-08T00:06:34;1030.6;;;5.1;74.8
74433;BME280;62865;53.146;23.172;2023-04-08T00:11:32;1030.6;;;5;74.8
74433;BME280;62865;53.146;23.172;2023-04-08T00:16:12;1030.6;;;5;74.9
74433;BME280;62865;53.146;23.172;2023-04-08T00:21:00;1030.6;;;4.9;75
74433;BME280;62865;53.146;23.172;2023-04-08T00:26:02;1030.6;;;4.9;75.1
74433;BME280;62865;53.146;23.172;2023-04-08T00:31:32;1030.6;;;4.8;75
74433;BME280;62865;53.146;23.172;2023-04-08T00:36:32;1030.6;;;4.8;75.1
74433;BME280;62865;53.146;23.172;2023-04-08T00:41:24;1030.6;;;4.7;75.1
74433;BME280;62865;53.146;23.172;2023-04-08T00:46:12;1030.7;;;4.6;75.3
74433;BME280;62865;53.146;23.172;2023-04-08T00:51:24;1030.7;;;4.5;75.4
74433;BME280;62865;53.146;23.172;2023-04-08T00:56:46;1030.7;;;4.3;75.6
74433;BME280;62865;53.146;23.172;2023-04-08T01:01:33;1030.7;;;4.3;76.3
74433;BME280;62865;53.146;23.172;2023-04-08T01:06:27;1030.8;;;4.2;76.4
74433;BME280;62865;53.146;23.172;2023-04-08T01:11:02;1030.8;;;4.2;76.6
74433;BME280;62865;53.146;23.172;2023-04-08T01:16:24;1030.8;;;4.1;76.4
74433;BME280;62865;53.146;23.172;2023-04-08T01:21:48;1030.8;;;4;76.6
74433;BME280;62865;53.146;23.172;2023-04-08T01:26:32;1030.9;;;4;76.8
74433;BME280;62865;53.146;23.172;2023-04-08T01:31:25;1030.9;;;3.9;77.2
74433;BME280;62865;53.146;23.172;2023-04-08T01:36:02;1030.9;;;3.8;77.1
74433;BME280;62865;53.146;23.172;2023-04-08T01:41:24;1030.9;;;3.8;77.4
74433;BME280;62865;53.146;23.172;2023-04-08T01:46:47;1031;;;3.8;77.4
74433;BME280;62865;53.146;23.172;2023-04-08T01:51:32;1031;;;3.8;77.3
74433;BME280;62865;53.146;23.172;2023-04-08T01:56:44;1031.1;;;3.8;77.5
74433;BME280;62865;53.146;23.172;2023-04-08T02:01:13;1031;;;3.8;77.4
74433;BME280;62865;53.146;23.172;2023-04-08T02:06:25;1031;;;3.8;77.2
74433;BME280;62865;53.146;23.172;2023-04-08T02:11:48;1031.1;;;3.7;77.3
74433;BME280;62865;53.146;23.172;2023-04-08T02:16:38;1031.2;;;3.6;77.8
74433;BME280;62865;53.146;23.172;2023-04-08T02:21:47;1031.2;;;3.5;77.8
74433;BME280;62865;53.146;23.172;2023-04-08T02:26:02;1031.2;;;3.5;77.8
74433;BME280;62865;53.146;23.172;2023-04-08T02:31:15;1031.2;;;3.5;77.7
74433;BME280;62865;53.146;23.172;2023-04-08T02:36:48;1031.2;;;3.4;77.5
74433;BME280;62865;53.146;23.172;2023-04-08T02:41:34;1031.3;;;3.4;77.4
74433;BME280;62865;53.146;23.172;2023-04-08T02:46:46;1031.3;;;3.4;77.5
74433;BME280;62865;53.146;23.172;2023-04-08T02:51:03;1031.3;;;3.3;77.4
74433;BME280;62865;53.146;23.172;2023-04-08T02:56:24;1031.3;;;3.3;77.2
74433;BME280;62865;53.146;23.172;2023-04-08T03:01:49;1031.4;;;3.2;77.5
74433;BME280;62865;53.146;23.172;2023-04-08T03:06:34;1031.4;;;3.1;78.1
74433;BME280;62865;53.146;23.172;2023-04-08T03:11:48;1031.4;;;3.1;77.9
74433;BME280;62865;53.146;23.172;2023-04-08T03:16:23;1031.5;;;3.1;77.8
74433;BME280;62865;53.146;23.172;2023-04-08T03:21:22;1031.5;;;3;77.8
74433;BME280;62865;53.146;23.172;2023-04-08T03:26:32;1031.5;;;3;77.9
74433;BME280;62865;53.146;23.172;2023-04-08T03:31:10;1031.5;;;3;77.8
74433;BME280;62865;53.146;23.172;2023-04-08T03:36:46;1031.5;;;3;77.8
74433;BME280;62865;53.146;23.172;2023-04-08T03:41:02;1031.6;;;3;77.8
74433;BME280;62865;53.146;23.172;2023-04-08T03:46:24;1031.6;;;3;77.6
74433;BME280;62865;53.146;23.172;2023-04-08T03:51:48;1031.6;;;3;77.8
74433;BME280;62865;53.146;23.172;2023-04-08T03:56:34;1031.5;;;3;77.9
74433;BME280;62865;53.146;23.172;2023-04-08T04:01:40;1031.6;;;3;77.9
74433;BME280;62865;53.146;23.172;2023-04-08T04:06:02;1031.6;;;3.1;77.8
74433;BME280;62865;53.146;23.172;2023-04-08T04:11:02;1031.7;;;3.1;77.4
74433;BME280;62865;53.146;23.172;2023-04-08T04:16:48;1031.7;;;3.1;77.5
74433;BME280;62865;53.146;23.172;2023-04-08T04:21:34;1031.7;;;3.2;77.6
74433;BME280;62865;53.146;23.172;2023-04-08T04:26:48;1031.8;;;3.1;77.6
74433;BME280;62865;53.146;23.172;2023-04-08T04:31:24;1031.8;;;3.1;77.8
74433;BME280;62865;53.146;23.172;2023-04-08T04:36:02;1031.9;;;3.2;78.3
74433;BME280;62865;53.146;23.172;2023-04-08T04:41:49;1031.9;;;3.3;78.1
74433;BME280;62865;53.146;23.172;2023-04-08T04:46:26;1032;;;3.5;78
74433;BME280;62865;53.146;23.172;2023-04-08T04:51:49;1032;;;3.8;77.3
74433;BME280;62865;53.146;23.172;2023-04-08T04:56:03;1031.9;;;4;77
74433;BME280;62865;53.146;23.172;2023-04-08T05:01:25;1031.9;;;4.1;76.8
74433;BME280;62865;53.146;23.172;2023-04-08T05:06:49;1031.9;;;4.2;77.1
74433;BME280;62865;53.146;23.172;2023-04-08T05:11:48;1031.9;;;4.4;76.4
74433;BME280;62865;53.146;23.172;2023-04-08T05:16:47;1031.9;;;4.7;75.7
74433;BME280;62865;53.146;23.172;2023-04-08T05:21:01;1031.9;;;4.9;75.2
74433;BME280;62865;53.146;23.172;2023-04-08T05:26:23;1032;;;5;74.7
74433;BME280;62865;53.146;23.172;2023-04-08T05:31:00;1032.1;;;5.3;74.6
74433;BME280;62865;53.146;23.172;2023-04-08T05:36:23;1032.1;;;5.5;74.1
74433;BME280;62865;53.146;23.172;2023-04-08T05:41:31;1032.1;;;5.7;73.8
74433;BME280;62865;53.146;23.172;2023-04-08T05:46:07;1032.1;;;5.9;73
74433;BME280;62865;53.146;23.172;2023-04-08T05:51:49;1032.2;;;6;72.7
74433;BME280;62865;53.146;23.172;2023-04-08T05:56:11;1032.2;;;6.2;72
74433;BME280;62865;53.146;23.172;2023-04-08T06:01:15;1032.2;;;6.4;71.5
74433;BME280;62865;53.146;23.172;2023-04-08T06:06:31;1032.2;;;6.6;71.2
74433;BME280;62865;53.146;23.172;2023-04-08T06:11:01;1032.2;;;6.7;70.7
74433;BME280;62865;53.146;23.172;2023-04-08T06:16:49;1032.2;;;6.8;70.3
74433;BME280;62865;53.146;23.172;2023-04-08T06:21:09;1032.2;;;6.9;69.7
74433;BME280;62865;53.146;23.172;2023-04-08T06:26:27;1032.2;;;7;69.8
74433;BME280;62865;53.146;23.172;2023-04-08T06:31:31;1032.3;;;7.1;69.2
74433;BME280;62865;53.146;23.172;2023-04-08T06:36:01;1032.3;;;7.2;69
74433;BME280;62865;53.146;23.172;2023-04-08T06:41:47;1032.2;;;7.4;68.8
74433;BME280;62865;53.146;23.172;2023-04-08T06:46:17;1032.3;;;7.5;68.2
74433;BME280;62865;53.146;23.172;2023-04-08T06:51:01;1032.3;;;7.8;67.7
74433;BME280;62865;53.146;23.172;2023-04-08T06:56:31;1032.2;;;8;67.5
74433;BME280;62865;53.146;23.172;2023-04-08T07:01:01;1032.3;;;8.3;67.1
74433;BME280;62865;53.146;23.172;2023-04-08T07:06:49;1032.3;;;8.8;66.2
74433;BME280;62865;53.146;23.172;2023-04-08T07:11:11;1032.4;;;9.2;64.9
74433;BME280;62865;53.146;23.172;2023-04-08T07:16:27;1032.4;;;9.6;63.8
74433;BME280;62865;53.146;23.172;2023-04-08T07:21:31;1032.4;;;10.1;62.8
74433;BME280;62865;53.146;23.172;2023-04-08T07:26:11;1032.5;;;10.5;61.8
74433;BME280;62865;53.146;23.172;2023-04-08T07:31:49;1032.5;;;10.9;60.4
74433;BME280;62865;53.146;23.172;2023-04-08T07:36:11;1032.5;;;11.3;59.4
74433;BME280;62865;53.146;23.172;2023-04-08T07:41:01;1032.5;;;11.6;57.8
74433;BME280;62865;53.146;23.172;2023-04-08T07:46:29;1032.5;;;11.6;56.5
74433;BME280;62865;53.146;23.172;2023-04-08T07:51:02;1032.5;;;11.7;56.1
74433;BME280;62865;53.146;23.172;2023-04-08T07:56:47;1032.5;;;11.9;55.2
74433;BME280;62865;53.146;23.172;2023-04-08T08:01:03;1032.5;;;12.2;54.6
74433;BME280;62865;53.146;23.172;2023-04-08T08:06:27;1032.6;;;12.1;52.9
74433;BME280;62865;53.146;23.172;2023-04-08T08:11:31;1032.7;;;12;53.1
74433;BME280;62865;53.146;23.172;2023-04-08T08:16:01;1032.7;;;12;53.1
74433;BME280;62865;53.146;23.172;2023-04-08T08:21:49;1032.7;;;12.3;52.7
74433;BME280;62865;53.146;23.172;2023-04-08T08:26:11;1032.7;;;12.5;51.9
74433;BME280;62865;53.146;23.172;2023-04-08T08:31:11;1032.7;;;12.7;51.7
74433;BME280;62865;53.146;23.172;2023-04-08T08:36:49;1032.6;;;13.1;50.4
74433;BME280;62865;53.146;23.172;2023-04-08T08:41:01;1032.6;;;13.3;49.2
74433;BME280;62865;53.146;23.172;2023-04-08T08:46:43;1032.5;;;13.3;48.7
74433;BME280;62865;53.146;23.172;2023-04-08T08:51:01;1032.4;;;13.3;48.6
74433;BME280;62865;53.146;23.172;2023-04-08T08:56:25;1032.4;;;13.5;48.7
74433;BME280;62865;53.146;23.172;2023-04-08T09:01:45;1032.4;;;14;48.1
74433;BME280;62865;53.146;23.172;2023-04-08T09:06:14;1032.4;;;14;47.6
74433;BME280;62865;53.146;23.172;2023-04-08T09:11:49;1032.3;;;14;48.2
74433;BME280;62865;53.146;23.172;2023-04-08T09:16:08;1032.3;;;13.8;48.4
74433;BME280;62865;53.146;23.172;2023-04-08T09:21:17;1032.3;;;13.8;49.1
74433;BME280;62865;53.146;23.172;2023-04-08T09:26:33;1032.3;;;13.6;48.6
74433;BME280;62865;53.146;23.172;2023-04-08T09:31:21;1032.4;;;13.4;49.1
74433;BME280;62865;53.146;23.172;2023-04-08T09:36:43;1032.4;;;13.4;49.5
74433;BME280;62865;53.146;23.172;2023-04-08T09:41:03;1032.3;;;13.5;49.1
74433;BME280;62865;53.146;23.172;2023-04-08T09:46:32;1032.3;;;13.5;48.9
74433;BME280;62865;53.146;23.172;2023-04-08T09:51:51;1032.3;;;13.7;48.5
74433;BME280;62865;53.146;23.172;2023-04-08T09:56:06;1032.2;;;14.2;48
74433;BME280;62865;53.146;23.172;2023-04-08T10:01:44;1032.2;;;14.8;46.5
74433;BME280;62865;53.146;23.172;2023-04-08T10:06:13;1032.1;;;15.4;45.2
74433;BME280;62865;53.146;23.172;2023-04-08T10:11:29;1032;;;15.8;44.4
74433;BME280;62865;53.146;23.172;2023-04-08T10:16:47;1032;;;16;44.3
74433;BME280;62865;53.146;23.172;2023-04-08T10:21:01;1032;;;16;44.5
74433;BME280;62865;53.146;23.172;2023-04-08T10:26:41;1031.9;;;15.7;44.4
74433;BME280;62865;53.146;23.172;2023-04-08T10:31:01;1031.9;;;15.3;45.1
74433;BME280;62865;53.146;23.172;2023-04-08T10:36:11;1031.9;;;15.6;44.8
74433;BME280;62865;53.146;23.172;2023-04-08T10:41:47;1031.8;;;15.7;44.6
74433;BME280;62865;53.146;23.172;2023-04-08T10:46:19;1031.8;;;15.9;44.1
74433;BME280;62865;53.146;23.172;2023-04-08T10:51:43;1031.7;;;15.8;44.1
74433;BME280;62865;53.146;23.172;2023-04-08T10:56:45;1031.7;;;15.6;44.2
74433;BME280;62865;53.146;23.172;2023-04-08T11:01:36;1031.7;;;15.2;44.9
74433;BME280;62865;53.146;23.172;2023-04-08T11:06:51;1031.7;;;15;44.9
74433;BME280;62865;53.146;23.172;2023-04-08T11:11:13;1031.6;;;14.9;44.9
74433;BME280;62865;53.146;23.172;2023-04-08T11:16:43;1031.6;;;14.6;44.7
74433;BME280;62865;53.146;23.172;2023-04-08T11:21:03;1031.5;;;14.6;45
74433;BME280;62865;53.146;23.172;2023-04-08T11:26:03;1031.4;;;15.1;44.7
74433;BME280;62865;53.146;23.172;2023-04-08T11:31:51;1031.3;;;15.7;43.9
74433;BME280;62865;53.146;23.172;2023-04-08T11:36:29;1031.3;;;16.2;43.2
74433;BME280;62865;53.146;23.172;2023-04-08T11:41:43;1031.2;;;16.6;42.2
74433;BME280;62865;53.146;23.172;2023-04-08T11:46:13;1031.1;;;16.8;41.5
74433;BME280;62865;53.146;23.172;2023-04-08T11:51:27;1031.1;;;17.4;40.8
74433;BME280;62865;53.146;23.172;2023-04-08T11:56:49;1031.2;;;17.7;39.9
74433;BME280;62865;53.146;23.172;2023-04-08T12:01:13;1031.2;;;17.7;39.9
74433;BME280;62865;53.146;23.172;2023-04-08T12:06:43;1031.2;;;17.9;39.7
74433;BME280;62865;53.146;23.172;2023-04-08T12:11:03;1031.2;;;17.9;40
74433;BME280;62865;53.146;23.172;2023-04-08T12:16:29;1031.1;;;17.8;39.9
74433;BME280;62865;53.146;23.172;2023-04-08T12:21:51;1031;;;17.5;40.2
74433;BME280;62865;53.146;23.172;2023-04-08T12:26:29;1031;;;17.4;40.1
74433;BME280;62865;53.146;23.172;2023-04-08T12:31:43;1031;;;17;40.9
74433;BME280;62865;53.146;23.172;2023-04-08T12:36:03;1031;;;16.8;41.6
74433;BME280;62865;53.146;23.172;2023-04-08T12:41:29;1031;;;16.6;41.9
74433;BME280;62865;53.146;23.172;2023-04-08T12:46:51;1031;;;16.3;42.5
74433;BME280;62865;53.146;23.172;2023-04-08T12:51:13;1031;;;16.2;42.7
74433;BME280;62865;53.146;23.172;2023-04-08T12:56:41;1030.9;;;16.4;42
74433;BME280;62865;53.146;23.172;2023-04-08T13:01:33;1030.8;;;16.9;41.4
74433;BME280;62865;53.146;23.172;2023-04-08T13:06:13;1030.8;;;16.8;41
74433;BME280;62865;53.146;23.172;2023-04-08T13:11:49;1030.8;;;16.8;41
74433;BME280;62865;53.146;23.172;2023-04-08T13:16:13;1030.8;;;16.8;41.1
74433;BME280;62865;53.146;23.172;2023-04-08T13:21:41;1030.7;;;16.8;40.9
74433;BME280;62865;53.146;23.172;2023-04-08T13:26:13;1030.7;;;16.8;41.2
74433;BME280;62865;53.146;23.172;2023-04-08T13:31:13;1030.7;;;16.6;41.8
74433;BME280;62865;53.146;23.172;2023-04-08T13:36:51;1030.6;;;16.4;42.5
74433;BME280;62865;53.146;23.172;2023-04-08T13:41:29;1030.7;;;16.2;43
74433;BME280;62865;53.146;23.172;2023-04-08T13:46:41;1030.7;;;16;43.7
74433;BME280;62865;53.146;23.172;2023-04-08T13:51:13;1030.7;;;15.9;44.4
74433;BME280;62865;53.146;23.172;2023-04-08T13:56:41;1030.7;;;15.9;45.2
74433;BME280;62865;53.146;23.172;2023-04-08T14:01:47;1030.7;;;15.8;46.1
74433;BME280;62865;53.146;23.172;2023-04-08T14:06:27;1030.7;;;15.7;47.2
74433;BME280;62865;53.146;23.172;2023-04-08T14:11:41;1030.7;;;15.4;48.3
74433;BME280;62865;53.146;23.172;2023-04-08T14:16:13;1030.6;;;15.5;48.7
74433;BME280;62865;53.146;23.172;2023-04-08T14:21:43;1030.6;;;15.5;48.6
74433;BME280;62865;53.146;23.172;2023-04-08T14:26:53;1030.6;;;15.5;49.4
74433;BME280;62865;53.146;23.172;2023-04-08T14:31:29;1030.6;;;15.5;50.1
74433;BME280;62865;53.146;23.172;2023-04-08T14:36:43;1030.5;;;15.3;50.7
74433;BME280;62865;53.146;23.172;2023-04-08T14:41:03;1030.4;;;15.2;51.1
74433;BME280;62865;53.146;23.172;2023-04-08T14:46:43;1030.3;;;15.3;50.8
74433;BME280;62865;53.146;23.172;2023-04-08T14:51:53;1030.3;;;15.4;50.8
74433;BME280;62865;53.146;23.172;2023-04-08T14:56:29;1030.3;;;15.3;50.5
74433;BME280;62865;53.146;23.172;2023-04-08T15:01:43;1030.3;;;15.4;50.6
74433;BME280;62865;53.146;23.172;2023-04-08T15:06:39;1030.2;;;15.4;50.5
74433;BME280;62865;53.146;23.172;2023-04-08T15:11:43;1030.2;;;15.3;50.5
74433;BME280;62865;53.146;23.172;2023-04-08T15:16:49;1030.2;;;15.2;50.7
74433;BME280;62865;53.146;23.172;2023-04-08T15:21:29;1030.2;;;15.1;51
74433;BME280;62865;53.146;23.172;2023-04-08T15:26:15;1030.2;;;15.1;50.7
74433;BME280;62865;53.146;23.172;2023-04-08T15:31:13;1030.1;;;15.1;50.9
74433;BME280;62865;53.146;23.172;2023-04-08T15:36:43;1030.1;;;15;51.1
74433;BME280;62865;53.146;23.172;2023-04-08T15:41:49;1030.1;;;14.9;51.3
74433;BME280;62865;53.146;23.172;2023-04-08T15:46:17;1030.1;;;14.9;51.5
74433;BME280;62865;53.146;23.172;2023-04-08T15:51:29;1030.1;;;14.9;51.6
74433;BME280;62865;53.146;23.172;2023-04-08T15:56:13;1030.1;;;14.8;51.7
74433;BME280;62865;53.146;23.172;2023-04-08T16:01:43;1030.1;;;14.8;51.9
74433;BME280;62865;53.146;23.172;2023-04-08T16:06:49;1030.1;;;14.7;52.3
74433;BME280;62865;53.146;23.172;2023-04-08T16:11:27;1030.1;;;14.6;52.7
74433;BME280;62865;53.146;23.172;2023-04-08T16:16:43;1030.1;;;14.5;53
74433;BME280;62865;53.146;23.172;2023-04-08T16:21:09;1030.1;;;14.5;53.1
74433;BME280;62865;53.146;23.172;2023-04-08T16:26:41;1030.1;;;14.4;53.6
74433;BME280;62865;53.146;23.172;2023-04-08T16:31:51;1030.1;;;14.3;54.1
74433;BME280;62865;53.146;23.172;2023-04-08T16:36:03;1030.1;;;14.3;54.3
74433;BME280;62865;53.146;23.172;2023-04-08T16:41:43;1030.1;;;14.3;54.6
74433;BME280;62865;53.146;23.172;2023-04-08T16:46:10;1030.2;;;14.2;55
74433;BME280;62865;53.146;23.172;2023-04-08T16:51:43;1030.2;;;14.1;55.2
74433;BME280;62865;53.146;23.172;2023-04-08T16:56:53;1030.2;;;14.1;55.3
74433;BME280;62865;53.146;23.172;2023-04-08T17:01:29;1030.2;;;14.2;55.3
74433;BME280;62865;53.146;23.172;2023-04-08T17:06:41;1030.3;;;14.1;55.4
74433;BME280;62865;53.146;23.172;2023-04-08T17:11:12;1030.3;;;14.1;55.7
74433;BME280;62865;53.146;23.172;2023-04-08T17:16:43;1030.4;;;14;56
74433;BME280;62865;53.146;23.172;2023-04-08T17:21:49;1030.4;;;14;56.1
74433;BME280;62865;53.146;23.172;2023-04-08T17:26:29;1030.4;;;14;56.1
74433;BME280;62865;53.146;23.172;2023-04-08T17:31:43;1030.4;;;14;56.2
74433;BME280;62865;53.146;23.172;2023-04-08T17:36:03;1030.5;;;14;56.3
74433;BME280;62865;53.146;23.172;2023-04-08T17:41:43;1030.5;;;14;56.4
74433;BME280;62865;53.146;23.172;2023-04-08T17:46:51;1030.5;;;14.1;56.4
74433;BME280;62865;53.146;23.172;2023-04-08T17:51:13;1030.5;;;14;56.7
74433;BME280;62865;53.146;23.172;2023-04-08T17:56:53;1030.6;;;13.9;57
74433;BME280;62865;53.146;23.172;2023-04-08T18:01:03;1030.6;;;13.9;57.1
74433;BME280;62865;53.146;23.172;2023-04-08T18:06:41;1030.6;;;13.9;57.2
74433;BME280;62865;53.146;23.172;2023-04-08T18:11:51;1030.6;;;13.8;57.5
74433;BME280;62865;53.146;23.172;2023-04-08T18:16:19;1030.6;;;13.8;57.6
74433;BME280;62865;53.146;23.172;2023-04-08T18:21:35;1030.6;;;13.7;57.9
74433;BME280;62865;53.146;23.172;2023-04-08T18:26:03;1030.6;;;13.6;58.3
74433;BME280;62865;53.146;23.172;2023-04-08T18:31:43;1030.6;;;13.5;58.5
74433;BME280;62865;53.146;23.172;2023-04-08T18:36:51;1030.6;;;13.5;58.4
74433;BME280;62865;53.146;23.172;2023-04-08T18:41:19;1030.6;;;13.5;57.9
74433;BME280;62865;53.146;23.172;2023-04-08T18:46:43;1030.6;;;13.5;58
74433;BME280;62865;53.146;23.172;2023-04-08T18:51:03;1030.6;;;13.5;58
74433;BME280;62865;53.146;23.172;2023-04-08T18:56:27;1030.7;;;13.4;58.3
74433;BME280;62865;53.146;23.172;2023-04-08T19:01:53;1030.7;;;13.3;59
74433;BME280;62865;53.146;23.172;2023-04-08T19:06:03;1030.7;;;13.2;60.3
74433;BME280;62865;53.146;23.172;2023-04-08T19:11:53;1030.7;;;13.2;61.5
74433;BME280;62865;53.146;23.172;2023-04-08T19:16:13;1030.7;;;13.2;62.1
74433;BME280;62865;53.146;23.172;2023-04-08T19:21:29;1030.7;;;13.2;62.5
74433;BME280;62865;53.146;23.172;2023-04-08T19:26:51;1030.7;;;13.2;62.8
74433;BME280;62865;53.146;23.172;2023-04-08T19:31:27;1030.6;;;13.2;63.5
74433;BME280;62865;53.146;23.172;2023-04-08T19:36:51;1030.6;;;13.1;64.1
74433;BME280;62865;53.146;23.172;2023-04-08T19:41:03;1030.6;;;13;64.5
74433;BME280;62865;53.146;23.172;2023-04-08T19:46:43;1030.7;;;12.9;65.2
74433;BME280;62865;53.146;23.172;2023-04-08T19:51:51;1030.6;;;12.8;65.6
74433;BME280;62865;53.146;23.172;2023-04-08T19:56:27;1030.6;;;12.7;66.2
74433;BME280;62865;53.146;23.172;2023-04-08T20:01:43;1030.6;;;12.5;67
74433;BME280;62865;53.146;23.172;2023-04-08T20:06:03;1030.6;;;12.4;67.8
74433;BME280;62865;53.146;23.172;2023-04-08T20:11:05;1030.6;;;12.3;68.2
74433;BME280;62865;53.146;23.172;2023-04-08T20:16:49;1030.6;;;12.3;68.3
74433;BME280;62865;53.146;23.172;2023-04-08T20:21:03;1030.6;;;12.3;68.5
74433;BME280;62865;53.146;23.172;2023-04-08T20:26:51;1030.6;;;12.2;69
74433;BME280;62865;53.146;23.172;2023-04-08T20:31:11;1030.6;;;12.1;69.4
74433;BME280;62865;53.146;23.172;2023-04-08T20:36:43;1030.6;;;12;69.7
74433;BME280;62865;53.146;23.172;2023-04-08T20:41:21;1030.6;;;11.9;70
74433;BME280;62865;53.146;23.172;2023-04-08T20:46:35;1030.7;;;11.9;70.3
74433;BME280;62865;53.146;23.172;2023-04-08T20:51:49;1030.7;;;11.8;70.4
74433;BME280;62865;53.146;23.172;2023-04-08T20:56:03;1030.7;;;11.8;70.7
74433;BME280;62865;53.146;23.172;2023-04-08T21:01:43;1030.7;;;11.7;71
74433;BME280;62865;53.146;23.172;2023-04-08T21:06:51;1030.7;;;11.7;71.1
74433;BME280;62865;53.146;23.172;2023-04-08T21:11:25;1030.8;;;11.6;71.4
74433;BME280;62865;53.146;23.172;2023-04-08T21:16:51;1030.8;;;11.6;71.6
74433;BME280;62865;53.146;23.172;2023-04-08T21:21:13;1030.9;;;11.5;71.9
74433;BME280;62865;53.146;23.172;2023-04-08T21:26:43;1030.9;;;11.5;72.2
74433;BME280;62865;53.146;23.172;2023-04-08T21:31:53;1030.9;;;11.4;72.3
74433;BME280;62865;53.146;23.172;2023-04-08T21:36:19;1030.9;;;11.4;72.3
74433;BME280;62865;53.146;23.172;2023-04-08T21:41:53;1030.9;;;11.5;72.2
74433;BME280;62865;53.146;23.172;2023-04-08T21:46:09;1030.9;;;11.4;72.2
74433;BME280;62865;53.146;23.172;2023-04-08T21:51:39;1030.9;;;11.4;72.3
74433;BME280;62865;53.146;23.172;2023-04-08T21:56:49;1030.9;;;11.4;72.4
74433;BME280;62865;53.146;23.172;2023-04-08T22:01:51;1030.9;;;11.4;72.3
74433;BME280;62865;53.146;23.172;2023-04-08T22:06:21;1030.8;;;11.4;72.4
74433;BME280;62865;53.146;23.172;2023-04-08T22:11:13;1030.8;;;11.4;72.4
74433;BME280;62865;53.146;23.172;2023-04-08T22:16:27;1030.7;;;11.4;72.4
74433;BME280;62865;53.146;23.172;2023-04-08T22:21:29;1030.7;;;11.4;72.5
74433;BME280;62865;53.146;23.172;2023-04-08T22:26:51;1030.7;;;11.5;72.4
74433;BME280;62865;53.146;23.172;2023-04-08T22:31:19;1030.7;;;11.5;72.2
74433;BME280;62865;53.146;23.172;2023-04-08T22:36:13;1030.7;;;11.5;72.2
74433;BME280;62865;53.146;23.172;2023-04-08T22:41:35;1030.7;;;11.6;72.2
74433;BME280;62865;53.146;23.172;2023-04-08T22:46:17;1030.7;;;11.5;72.4
74433;BME280;62865;53.146;23.172;2023-04-08T22:51:39;1030.7;;;11.4;72.8
74433;BME280;62865;53.146;23.172;2023-04-08T22:56:11;1030.7;;;11.4;73
74433;BME280;62865;53.146;23.172;2023-04-08T23:01:09;1030.7;;;11.4;73
74433;BME280;62865;53.146;23.172;2023-04-08T23:06:35;1030.7;;;11.3;73.2
74433;BME280;62865;53.146;23.172;2023-04-08T23:11:03;1030.7;;;11.2;73.6
74433;BME280;62865;53.146;23.172;2023-04-08T23:16:49;1030.8;;;11.2;73.5
74433;BME280;62865;53.146;23.172;2023-04-08T23:21:19;1030.8;;;11.2;73.5
74433;BME280;62865;53.146;23.172;2023-04-08T23:26:31;1030.8;;;11.2;73.6
74433;BME280;62865;53.146;23.172;2023-04-08T23:31:33;1030.8;;;11.3;73.6
74433;BME280;62865;53.146;23.172;2023-04-08T23:36:05;1030.8;;;11.3;73.6
74433;BME280;62865;53.146;23.172;2023-04-08T23:41:51;1030.7;;;11.2;73.7
74433;BME280;62865;53.146;23.172;2023-04-08T23:46:19;1030.7;;;11.1;73.7
74433;BME280;62865;53.146;23.172;2023-04-08T23:51:03;1030.7;;;11;74.1
74433;BME280;62865;53.146;23.172;2023-04-08T23:56:33;1030.7;;;10.9;74.3
